createdAt,value
2022-11-19T10:25:20.889Z,27.48
2022-11-19T10:28:02.183Z,22.88
2022-11-19T10:31:08.122Z,26.17
2022-11-19T10:33:49.935Z,27.95
2022-11-19T10:36:29.578Z,28.30
2022-11-19T10:39:11.960Z,20.52
2022-11-19T10:41:48.298Z,24.35
2022-11-19T10:44:43.262Z,23.95
2022-11-19T10:48:01.402Z,24.88
2022-11-19T10:56:54.022Z,23.95
2022-11-19T10:59:27.274Z,31.13
2022-11-19T11:08:57.666Z,22.10
2022-11-19T11:35:48.936Z,27.35
2022-11-19T11:39:24.252Z,29.23
2022-11-19T11:42:05.740Z,29.38
2022-11-19T11:45:05.166Z,30.70
2022-11-19T11:47:37.875Z,27.13
2022-11-19T11:54:13.743Z,25.83
2022-11-19T11:56:45.028Z,29.15
2022-11-19T11:59:24.508Z,25.75
2022-11-19T12:02:06.865Z,28.52
2022-11-19T12:04:43.471Z,23.08
2022-11-19T12:11:06.800Z,24.88
2022-11-19T12:13:46.082Z,23.75
2022-11-19T12:20:18.124Z,24.27
2022-11-19T12:23:09.430Z,23.10
2022-11-19T12:26:05.334Z,22.10
2022-11-19T12:28:38.403Z,21.30
2022-11-19T12:32:04.045Z,21.55
2022-11-19T12:35:28.519Z,21.05
2022-11-19T12:38:04.329Z,19.48
2022-11-19T12:40:46.397Z,18.60
2022-11-19T12:43:41.806Z,19.52
2022-11-19T12:46:56.626Z,18.35
2022-11-19T12:50:13.305Z,19.98
2022-11-19T12:53:33.842Z,21.25
2022-11-19T12:56:24.971Z,20.70
2022-11-19T12:58:55.222Z,20.77
2022-11-19T13:01:28.018Z,20.20
2022-11-19T13:04:31.038Z,22.98
2022-11-19T13:08:11.971Z,21.50
2022-11-19T13:10:44.740Z,21.50
2022-11-19T13:13:17.357Z,22.10
2022-11-19T13:16:14.807Z,20.00
2022-11-19T13:18:47.779Z,20.73
2022-11-19T13:21:31.349Z,21.30
2022-11-19T13:24:19.385Z,21.73
2022-11-19T13:26:46.665Z,22.95
2022-11-19T13:29:15.662Z,23.25
2022-11-19T13:31:52.942Z,19.38
2022-11-19T13:35:11.744Z,21.98
2022-11-19T13:37:45.563Z,23.27
2022-11-19T13:40:22.252Z,19.60
2022-11-19T13:43:31.161Z,14.60
2022-11-19T13:46:08.308Z,15.93
2022-11-19T13:48:41.963Z,11.63
2022-11-19T13:51:22.522Z,11.57
2022-11-19T13:53:52.381Z,17.60
2022-11-19T13:56:22.036Z,10.02
2022-11-19T13:58:55.073Z,10.27
2022-11-19T14:01:36.611Z,10.32
2022-11-19T14:04:17.164Z,9.77
2022-11-19T14:07:16.328Z,13.30
2022-11-19T14:09:49.383Z,9.75
2022-11-19T14:12:28.365Z,10.48
2022-11-19T14:15:41.960Z,11.65
2022-11-19T14:18:56.663Z,11.75
2022-11-19T14:21:45.123Z,11.50
2022-11-19T14:24:42.744Z,13.10
2022-11-19T14:27:26.874Z,10.18
2022-11-19T14:29:58.370Z,9.68
2022-11-19T14:32:31.517Z,12.15
2022-11-19T14:35:01.474Z,13.52
2022-11-19T14:37:34.379Z,10.50
2022-11-19T14:40:12.225Z,9.68
2022-11-19T14:43:19.696Z,10.75
2022-11-19T14:46:02.809Z,10.40
2022-11-19T14:48:30.859Z,16.35
2022-11-19T14:51:11.723Z,10.75
2022-11-19T14:54:20.160Z,12.48
2022-11-19T14:56:59.315Z,12.60
2022-11-19T14:59:36.560Z,11.70
2022-11-19T15:02:10.237Z,15.95
2022-11-19T15:04:42.087Z,14.75
2022-11-19T15:10:01.226Z,12.88
2022-11-19T15:13:03.850Z,12.25
2022-11-19T15:15:43.993Z,10.23
2022-11-19T15:18:42.976Z,12.02
2022-11-19T15:21:21.619Z,15.20
2022-11-19T15:24:09.153Z,17.83
2022-11-19T15:26:50.586Z,13.52
2022-11-19T15:29:48.273Z,11.45
2022-11-19T15:32:42.917Z,13.23
2022-11-19T15:35:19.740Z,12.40
2022-11-19T15:38:18.556Z,12.50
2022-11-19T15:40:49.752Z,14.18
2022-11-19T15:43:24.119Z,11.80
2022-11-19T15:46:30.916Z,13.38
2022-11-19T15:49:19.513Z,15.13
2022-11-19T15:51:58.448Z,14.82
2022-11-19T15:54:31.334Z,13.70
2022-11-19T15:57:14.622Z,17.67
2022-11-19T15:59:43.493Z,15.10
2022-11-19T16:02:36.832Z,17.05
2022-11-19T16:05:20.448Z,17.85
2022-11-19T16:07:48.816Z,16.45
2022-11-19T16:10:31.557Z,16.00
2022-11-19T16:13:41.150Z,13.25
2022-11-19T16:16:55.095Z,16.08
2022-11-19T16:19:24.616Z,13.75
2022-11-19T16:22:15.841Z,11.93
2022-11-19T16:25:01.955Z,8.77
2022-11-19T16:27:29.529Z,13.65
2022-11-19T16:29:56.830Z,13.30
2022-11-19T16:32:26.433Z,15.60
2022-11-19T16:35:09.256Z,12.63
2022-11-19T16:37:36.755Z,13.27
2022-11-19T16:40:04.193Z,16.08
2022-11-19T16:42:46.499Z,16.58
2022-11-19T16:45:35.129Z,19.90
2022-11-19T16:48:11.407Z,14.90
2022-11-19T16:53:46.644Z,23.42
2022-11-19T16:56:16.907Z,22.95
2022-11-19T16:58:46.028Z,24.25
2022-11-19T17:01:40.287Z,23.98
2022-11-19T17:04:29.095Z,28.60
2022-11-19T17:06:59.972Z,22.95
2022-11-19T17:09:43.754Z,19.45
2022-11-19T17:12:23.106Z,19.20
2022-11-19T17:14:58.765Z,24.02
2022-11-19T17:17:33.231Z,22.27
2022-11-19T17:20:03.597Z,31.00
2022-11-19T17:22:35.697Z,32.15
2022-11-19T17:25:04.413Z,33.58
2022-11-19T17:27:38.031Z,42.03
2022-11-19T17:30:11.098Z,32.60
2022-11-19T17:33:02.599Z,27.33
2022-11-19T17:35:38.782Z,34.45
2022-11-19T17:38:27.724Z,25.90
2022-11-19T17:41:03.010Z,31.20
2022-11-19T17:43:49.924Z,29.75
2022-11-19T17:46:17.479Z,31.58
2022-11-19T17:48:50.498Z,25.98
2022-11-19T17:51:26.168Z,22.60
2022-11-19T17:53:55.943Z,21.67
2022-11-19T17:56:28.104Z,21.90
2022-11-19T17:58:55.310Z,21.83
2022-11-19T18:01:23.190Z,34.97
2022-11-19T18:03:50.413Z,36.55
2022-11-19T18:06:25.712Z,28.77
2022-11-19T18:08:53.150Z,31.70
2022-11-19T18:11:25.092Z,33.78
2022-11-19T18:16:27.624Z,27.15
2022-11-19T18:18:54.683Z,26.05
2022-11-19T18:21:23.262Z,18.75
2022-11-19T18:23:51.920Z,13.25
2022-11-19T18:26:22.526Z,11.48
2022-11-19T18:28:49.839Z,9.95
2022-11-19T18:31:20.873Z,9.27
2022-11-19T18:33:48.844Z,11.77
2022-11-19T18:36:17.429Z,12.38
2022-11-19T18:38:48.601Z,9.38
2022-11-19T18:41:21.349Z,7.32
2022-11-19T18:44:10.232Z,8.23
2022-11-19T18:46:40.260Z,7.00
2022-11-19T18:49:10.409Z,7.75
2022-11-19T18:51:38.256Z,10.55
2022-11-19T18:54:05.371Z,10.50
2022-11-19T18:56:32.607Z,11.77
2022-11-19T18:59:04.749Z,19.00
2022-11-19T19:01:32.481Z,20.02
2022-11-19T19:04:00.355Z,17.02
2022-11-19T19:06:29.116Z,24.15
2022-11-19T19:08:56.419Z,19.25
2022-11-19T19:11:46.033Z,17.17
2022-11-19T19:14:12.989Z,9.80
2022-11-19T19:16:44.510Z,9.20
2022-11-19T19:19:14.348Z,7.78
2022-11-19T19:21:42.819Z,8.00
2022-11-19T19:24:10.167Z,5.75
2022-11-19T19:26:39.912Z,11.05
2022-11-19T19:29:10.045Z,8.45
2022-11-19T19:31:37.535Z,5.32
2022-11-19T19:34:04.830Z,7.57
2022-11-19T19:36:32.239Z,9.77
2022-11-19T19:38:59.228Z,9.57
2022-11-19T19:41:28.679Z,12.00
2022-11-19T19:43:59.968Z,13.05
2022-11-19T19:46:27.335Z,10.05
2022-11-19T19:48:55.615Z,10.27
2022-11-19T19:51:30.294Z,10.18
2022-11-19T19:53:57.293Z,10.85
2022-11-19T19:56:27.127Z,8.85
2022-11-19T19:58:56.088Z,11.05
2022-11-19T20:01:25.543Z,11.57
2022-11-19T20:03:54.937Z,11.50
2022-11-19T20:06:23.747Z,16.40
2022-11-19T20:08:51.135Z,18.25
2022-11-19T20:11:20.851Z,18.02
2022-11-19T20:13:48.014Z,25.13
2022-11-19T20:16:20.662Z,25.48
2022-11-19T20:18:53.557Z,25.15
2022-11-19T20:21:26.978Z,25.30
2022-11-19T20:23:55.036Z,24.42
2022-11-19T20:26:24.923Z,20.48
2022-11-19T20:29:06.891Z,17.58
2022-11-19T20:34:04.157Z,18.35
2022-11-19T20:36:34.159Z,19.15
2022-11-19T20:39:01.602Z,20.27
2022-11-19T20:41:47.351Z,28.70
2022-11-19T20:44:23.285Z,43.25
2022-11-19T20:47:03.164Z,35.95
2022-11-19T20:49:35.705Z,53.47
2022-11-19T20:52:03.638Z,38.00
2022-11-19T20:54:31.372Z,37.85
2022-11-19T20:56:58.929Z,36.95
2022-11-19T20:59:27.268Z,37.58
2022-11-19T21:01:56.283Z,41.97
2022-11-19T21:04:24.820Z,42.20
2022-11-19T21:06:53.936Z,28.20
2022-11-19T21:09:24.765Z,38.05
2022-11-19T21:11:52.151Z,46.60
2022-11-19T21:14:19.283Z,20.02
2022-11-19T21:16:46.434Z,15.18
2022-11-19T21:19:14.544Z,14.93
2022-11-19T21:21:42.075Z,23.42
2022-11-19T21:24:09.344Z,20.38
2022-11-19T21:26:36.670Z,30.55
2022-11-19T21:29:03.824Z,41.35
2022-11-19T21:31:44.543Z,46.40
2022-11-19T21:34:17.858Z,43.58
2022-11-19T21:36:46.538Z,102.80
2022-11-19T21:39:18.929Z,81.60
2022-11-19T21:41:49.180Z,27.80
2022-11-19T21:44:21.145Z,28.33
2022-11-19T21:46:49.047Z,14.25
2022-11-19T21:49:16.130Z,15.63
2022-11-19T21:51:43.575Z,12.52
2022-11-19T21:54:10.764Z,20.52
2022-11-19T21:56:38.990Z,14.90
2022-11-19T21:59:09.476Z,13.88
2022-11-19T22:01:36.550Z,15.48
2022-11-19T22:04:04.554Z,9.52
2022-11-19T22:06:32.193Z,17.63
2022-11-19T22:08:59.263Z,16.88
2022-11-19T22:11:28.986Z,11.27
2022-11-19T22:14:02.166Z,22.30
2022-11-19T22:16:30.441Z,36.50
2022-11-19T22:19:01.944Z,20.92
2022-11-19T22:21:29.547Z,31.63
2022-11-19T22:23:57.281Z,30.60
2022-11-19T22:26:24.503Z,26.90
2022-11-19T22:28:55.981Z,24.60
2022-11-19T22:31:26.063Z,25.90
2022-11-19T22:33:53.975Z,16.40
2022-11-19T22:36:22.477Z,14.63
2022-11-19T22:38:50.182Z,12.75
2022-11-19T22:41:19.600Z,15.95
2022-11-19T22:43:46.649Z,16.45
2022-11-19T22:46:14.603Z,12.95
2022-11-19T22:48:41.988Z,9.55
2022-11-19T22:51:16.110Z,9.77
2022-11-19T22:53:43.677Z,6.68
2022-11-19T22:56:12.785Z,8.50
2022-11-19T22:58:40.482Z,7.30
2022-11-19T23:01:24.264Z,9.40
2022-11-19T23:03:52.228Z,6.45
2022-11-19T23:06:19.793Z,7.65
2022-11-19T23:08:49.143Z,5.93
2022-11-19T23:11:37.684Z,14.82
2022-11-19T23:14:05.543Z,6.78
2022-11-19T23:16:32.600Z,10.98
2022-11-19T23:18:59.748Z,8.60
2022-11-19T23:21:28.887Z,10.20
2022-11-19T23:23:57.110Z,9.95
2022-11-19T23:26:26.430Z,12.23
2022-11-19T23:28:54.106Z,7.55
2022-11-19T23:31:26.853Z,11.05
2022-11-19T23:33:59.081Z,13.25
2022-11-19T23:36:35.005Z,11.48
2022-11-19T23:39:02.581Z,12.27
2022-11-19T23:41:34.681Z,22.17
2022-11-19T23:44:04.528Z,20.17
2022-11-19T23:46:34.109Z,12.65
2022-11-19T23:49:02.044Z,9.30
2022-11-19T23:51:36.352Z,6.20
2022-11-19T23:54:04.626Z,8.43
2022-11-19T23:56:33.283Z,10.18
2022-11-19T23:59:01.964Z,9.75
